createdAt,value
2024-01-24T00:02:03.197Z,5.89
2024-01-24T00:04:31.005Z,5.89
2024-01-24T00:06:58.297Z,5.92
2024-01-24T00:09:25.625Z,5.77
2024-01-24T00:11:52.892Z,5.87
2024-01-24T00:14:20.120Z,5.88
2024-01-24T00:16:47.320Z,5.97
2024-01-24T00:19:14.626Z,5.98
2024-01-24T00:21:42.164Z,5.83
2024-01-24T00:24:09.511Z,5.68
2024-01-24T00:26:39.586Z,5.89
2024-01-24T00:29:06.762Z,5.85
2024-01-24T00:31:34.191Z,5.97
2024-01-24T00:34:01.760Z,5.99
2024-01-24T00:36:28.985Z,6.10
2024-01-24T00:38:56.125Z,6.19
2024-01-24T00:41:23.469Z,6.28
2024-01-24T00:43:50.649Z,6.32
2024-01-24T00:46:17.777Z,6.45
2024-01-24T00:48:45.258Z,6.70
2024-01-24T00:51:13.198Z,6.81
2024-01-24T00:53:41.285Z,7.01
2024-01-24T00:56:08.596Z,6.89
2024-01-24T00:58:35.811Z,7.00
2024-01-24T01:01:03.141Z,7.05
2024-01-24T01:03:30.470Z,7.19
2024-01-24T01:05:57.709Z,7.35
2024-01-24T01:08:25.004Z,7.47
2024-01-24T01:10:52.158Z,7.57
2024-01-24T01:13:19.623Z,7.66
2024-01-24T01:15:46.986Z,7.78
2024-01-24T01:18:14.264Z,7.80
2024-01-24T01:20:41.689Z,7.91
2024-01-24T01:23:08.890Z,7.94
2024-01-24T01:25:36.151Z,7.93
2024-01-24T01:28:03.400Z,8.06
2024-01-24T01:30:30.600Z,8.21
2024-01-24T01:32:57.949Z,8.32
2024-01-24T01:35:25.316Z,8.30
2024-01-24T01:37:52.624Z,8.31
2024-01-24T01:40:19.895Z,8.41
2024-01-24T01:42:47.222Z,8.44
2024-01-24T01:45:14.492Z,8.54
2024-01-24T01:47:42.294Z,8.72
2024-01-24T01:50:17.948Z,8.78
2024-01-24T01:52:46.993Z,8.77
2024-01-24T01:55:15.262Z,8.86
2024-01-24T01:57:44.924Z,9.03
2024-01-24T02:00:20.506Z,9.14
2024-01-24T02:02:48.890Z,9.03
2024-01-24T02:05:16.375Z,9.18
2024-01-24T02:07:45.053Z,9.33
2024-01-24T02:10:13.242Z,9.36
2024-01-24T02:12:40.698Z,9.24
2024-01-24T02:15:11.428Z,9.21
2024-01-24T02:17:38.895Z,9.18
2024-01-24T02:20:10.945Z,9.33
2024-01-24T02:22:38.265Z,9.41
2024-01-24T02:25:06.380Z,9.47
2024-01-24T02:27:33.621Z,9.41
2024-01-24T02:30:00.794Z,9.46
2024-01-24T02:32:28.105Z,9.47
2024-01-24T02:34:55.334Z,9.59
2024-01-24T02:37:23.435Z,9.55
2024-01-24T02:39:50.752Z,9.54
2024-01-24T02:42:18.149Z,9.53
2024-01-24T02:44:45.337Z,9.53
2024-01-24T02:47:13.016Z,9.67
2024-01-24T02:49:40.921Z,9.79
2024-01-24T02:52:08.273Z,9.79
2024-01-24T02:54:37.584Z,9.76
2024-01-24T02:57:05.817Z,9.78
2024-01-24T02:59:33.198Z,9.86
2024-01-24T03:02:00.497Z,9.74
2024-01-24T03:04:28.071Z,9.65
2024-01-24T03:06:57.044Z,9.67
2024-01-24T03:09:24.373Z,9.60
2024-01-24T03:11:51.628Z,9.55
2024-01-24T03:14:18.982Z,9.60
2024-01-24T03:16:46.134Z,9.65
2024-01-24T03:19:14.918Z,9.65
2024-01-24T03:21:42.768Z,9.61
2024-01-24T03:24:09.998Z,9.66
2024-01-24T03:26:37.434Z,9.64
2024-01-24T03:29:04.759Z,9.76
2024-01-24T03:31:32.009Z,9.80
2024-01-24T03:33:59.327Z,9.79
2024-01-24T03:36:26.632Z,9.85
2024-01-24T03:38:54.657Z,9.91
2024-01-24T03:41:21.927Z,10.01
2024-01-24T03:43:49.505Z,10.14
2024-01-24T03:46:21.165Z,10.06
2024-01-24T03:48:48.686Z,10.09
2024-01-24T03:51:15.999Z,10.18
2024-01-24T03:53:43.170Z,10.13
2024-01-24T03:56:10.329Z,10.16
2024-01-24T03:58:38.233Z,10.24
2024-01-24T04:01:06.489Z,10.21
2024-01-24T04:03:33.952Z,10.36
2024-01-24T04:06:01.439Z,10.34
2024-01-24T04:08:28.732Z,10.40
2024-01-24T04:10:56.044Z,10.42
2024-01-24T04:13:23.207Z,10.57
2024-01-24T04:15:50.462Z,10.59
2024-01-24T04:18:17.997Z,10.62
2024-01-24T04:20:45.452Z,10.69
2024-01-24T04:23:12.709Z,10.87
2024-01-24T04:25:39.852Z,10.91
2024-01-24T04:28:07.124Z,10.91
2024-01-24T04:30:34.440Z,10.87
2024-01-24T04:33:01.744Z,10.83
2024-01-24T04:35:28.931Z,10.98
2024-01-24T04:37:56.076Z,11.14
2024-01-24T04:40:23.258Z,11.23
2024-01-24T04:42:50.436Z,11.06
2024-01-24T04:45:18.004Z,11.09
2024-01-24T04:47:46.967Z,11.22
2024-01-24T04:50:14.454Z,11.46
2024-01-24T04:52:41.690Z,11.59
2024-01-24T04:55:15.018Z,11.59
2024-01-24T04:57:42.772Z,11.45
2024-01-24T05:00:13.052Z,11.48
2024-01-24T05:02:40.611Z,11.57
2024-01-24T05:05:08.678Z,11.45
2024-01-24T05:07:36.295Z,11.39
2024-01-24T05:10:04.816Z,11.57
2024-01-24T05:12:32.857Z,11.50
2024-01-24T05:15:00.332Z,11.72
2024-01-24T05:17:27.544Z,11.59
2024-01-24T05:19:55.344Z,11.61
2024-01-24T05:22:22.833Z,11.65
2024-01-24T05:24:50.149Z,11.67
2024-01-24T05:27:17.585Z,11.68
2024-01-24T05:29:46.745Z,11.68
2024-01-24T05:32:14.837Z,11.67
2024-01-24T05:34:42.344Z,11.73
2024-01-24T05:37:09.825Z,11.78
2024-01-24T05:39:37.031Z,11.64
2024-01-24T05:42:04.646Z,11.60
2024-01-24T05:44:31.803Z,11.62
2024-01-24T05:46:58.924Z,11.74
2024-01-24T05:49:26.320Z,11.77
2024-01-24T05:51:53.624Z,11.84
2024-01-24T05:54:22.437Z,11.80
2024-01-24T05:56:49.604Z,11.84
2024-01-24T05:59:16.846Z,11.89
2024-01-24T06:01:44.673Z,11.71
2024-01-24T06:04:12.245Z,11.75
2024-01-24T06:06:39.810Z,11.78
2024-01-24T06:09:07.328Z,11.72
2024-01-24T06:11:34.653Z,11.60
2024-01-24T06:14:01.989Z,11.57
2024-01-24T06:16:29.172Z,11.65
2024-01-24T06:18:56.423Z,11.55
2024-01-24T06:21:23.693Z,11.64
2024-01-24T06:23:50.863Z,11.62
2024-01-24T06:26:18.134Z,11.66
2024-01-24T06:28:45.327Z,11.58
2024-01-24T06:31:13.166Z,11.73
2024-01-24T06:33:40.390Z,11.59
2024-01-24T06:36:07.767Z,11.56
2024-01-24T06:38:34.932Z,11.72
2024-01-24T06:41:02.153Z,11.77
2024-01-24T06:43:30.053Z,11.86
2024-01-24T06:45:57.340Z,11.75
2024-01-24T06:48:24.721Z,11.70
2024-01-24T06:50:51.968Z,11.68
2024-01-24T06:53:19.116Z,11.64
2024-01-24T06:55:46.357Z,11.68
2024-01-24T06:58:13.775Z,11.62
2024-01-24T07:00:41.047Z,11.65
2024-01-24T07:03:08.368Z,11.64
2024-01-24T07:05:35.594Z,11.68
2024-01-24T07:08:02.827Z,11.75
2024-01-24T07:10:30.023Z,11.75
2024-01-24T07:12:58.242Z,11.72
2024-01-24T07:15:26.124Z,11.70
2024-01-24T07:17:53.395Z,11.62
2024-01-24T07:20:20.749Z,11.70
2024-01-24T07:22:48.003Z,11.72
2024-01-24T07:25:15.235Z,11.74
2024-01-24T07:27:42.824Z,11.71
2024-01-24T07:30:10.554Z,11.71
2024-01-24T07:32:41.041Z,11.68
2024-01-24T07:35:10.363Z,11.62
2024-01-24T07:37:37.878Z,11.84
2024-01-24T07:40:05.996Z,11.75
2024-01-24T07:42:33.370Z,11.85
2024-01-24T07:45:01.171Z,11.87
2024-01-24T07:47:28.440Z,11.86
2024-01-24T07:49:57.110Z,11.79
2024-01-24T07:52:32.380Z,11.84
2024-01-24T07:55:08.039Z,11.80
2024-01-24T07:57:36.339Z,11.79
2024-01-24T08:00:07.364Z,11.86
2024-01-24T08:02:35.423Z,11.87
2024-01-24T08:05:03.127Z,11.89
2024-01-24T08:07:32.412Z,11.86
2024-01-24T08:09:59.870Z,11.99
2024-01-24T08:12:27.154Z,11.98
2024-01-24T08:14:54.715Z,11.93
2024-01-24T08:17:21.999Z,11.96
2024-01-24T08:19:52.674Z,12.00
2024-01-24T08:22:19.883Z,12.06
2024-01-24T08:24:47.157Z,12.00
2024-01-24T08:27:14.658Z,12.04
2024-01-24T08:29:41.984Z,12.17
2024-01-24T08:32:09.211Z,12.17
2024-01-24T08:34:37.742Z,12.14
2024-01-24T08:37:06.415Z,12.20
2024-01-24T08:39:34.435Z,12.19
2024-01-24T08:42:04.702Z,12.06
2024-01-24T08:44:31.969Z,12.02
2024-01-24T08:46:59.464Z,12.03
2024-01-24T08:49:26.881Z,12.00
2024-01-24T08:51:54.461Z,11.99
2024-01-24T08:54:22.316Z,11.99
2024-01-24T08:56:50.412Z,11.99
2024-01-24T08:59:18.289Z,11.92
2024-01-24T09:01:47.205Z,11.91
2024-01-24T09:04:15.452Z,11.93
2024-01-24T09:06:44.291Z,11.97
2024-01-24T09:09:15.033Z,12.01
2024-01-24T09:11:49.429Z,11.93
2024-01-24T09:14:25.408Z,11.97
2024-01-24T09:16:53.316Z,11.85
2024-01-24T09:19:21.475Z,12.29
2024-01-24T09:21:49.176Z,12.45
2024-01-24T09:24:17.550Z,12.66
2024-01-24T09:26:44.853Z,12.58
2024-01-24T09:29:14.594Z,12.53
2024-01-24T09:31:46.740Z,12.81
2024-01-24T09:34:14.311Z,13.32
2024-01-24T09:36:42.170Z,13.12
2024-01-24T09:39:13.213Z,12.87
2024-01-24T09:41:42.853Z,12.67
2024-01-24T09:44:13.093Z,12.70
2024-01-24T09:46:43.336Z,12.65
2024-01-24T09:49:11.671Z,12.82
2024-01-24T09:51:42.451Z,12.66
2024-01-24T09:54:13.810Z,12.70
2024-01-24T09:56:43.985Z,12.74
2024-01-24T09:59:12.817Z,13.35
2024-01-24T10:01:40.982Z,13.43
2024-01-24T10:04:10.502Z,13.27
2024-01-24T10:06:40.754Z,13.41
2024-01-24T10:09:10.789Z,13.91
2024-01-24T10:11:37.923Z,13.71
2024-01-24T10:14:05.114Z,14.05
2024-01-24T10:16:32.851Z,14.17
2024-01-24T10:19:00.239Z,14.26
2024-01-24T10:21:27.893Z,13.69
2024-01-24T10:24:00.290Z,13.60
2024-01-24T10:26:28.124Z,13.49
2024-01-24T10:28:56.152Z,13.39
2024-01-24T10:31:25.010Z,13.50
2024-01-24T10:33:57.080Z,13.40
2024-01-24T10:36:28.157Z,14.13
2024-01-24T10:39:01.686Z,14.37
2024-01-24T10:41:33.540Z,14.49
2024-01-24T10:44:11.778Z,14.60
2024-01-24T10:46:40.229Z,14.70
2024-01-24T10:49:11.051Z,14.24
2024-01-24T10:51:39.862Z,14.54
2024-01-24T10:54:08.190Z,13.88
2024-01-24T10:56:39.348Z,13.65
2024-01-24T10:59:08.490Z,13.58
2024-01-24T11:01:36.125Z,13.53
2024-01-24T11:04:08.655Z,13.50
2024-01-24T11:06:48.147Z,13.50
2024-01-24T11:09:25.170Z,13.42
2024-01-24T11:11:58.444Z,13.53
2024-01-24T11:14:34.370Z,13.49
2024-01-24T11:17:07.022Z,13.56
2024-01-24T11:19:34.643Z,13.60
2024-01-24T11:22:16.420Z,13.56
2024-01-24T11:24:53.973Z,13.54
2024-01-24T11:27:36.593Z,13.59
2024-01-24T11:30:19.838Z,13.59
2024-01-24T11:32:47.834Z,13.54
2024-01-24T11:35:33.608Z,13.53
2024-01-24T11:38:16.942Z,13.57
2024-01-24T11:40:54.036Z,13.49
2024-01-24T11:43:31.719Z,13.54
2024-01-24T11:46:06.929Z,13.52
2024-01-24T11:48:40.559Z,14.34
2024-01-24T11:51:10.200Z,13.94
2024-01-24T11:53:37.563Z,13.68
2024-01-24T11:56:06.671Z,13.62
2024-01-24T11:58:34.625Z,13.64
2024-01-24T12:01:12.266Z,13.55
2024-01-24T12:03:50.618Z,13.51
2024-01-24T12:06:19.157Z,13.46
2024-01-24T12:08:49.864Z,13.40
2024-01-24T12:11:18.885Z,13.39
2024-01-24T12:13:46.590Z,13.45
2024-01-24T12:16:14.086Z,13.53
2024-01-24T12:18:42.362Z,13.56
2024-01-24T12:21:10.528Z,13.56
2024-01-24T12:23:38.117Z,13.49
2024-01-24T12:26:05.821Z,13.51
2024-01-24T12:28:33.882Z,13.44
2024-01-24T12:31:04.704Z,13.40
2024-01-24T12:33:34.514Z,13.39
2024-01-24T12:36:07.568Z,13.40
2024-01-24T12:38:36.996Z,13.46
2024-01-24T12:41:05.201Z,13.41
2024-01-24T12:43:32.905Z,13.51
2024-01-24T12:46:08.229Z,13.48
2024-01-24T12:48:36.379Z,13.41
2024-01-24T12:51:04.194Z,13.34
2024-01-24T12:53:33.686Z,13.28
2024-01-24T12:56:01.904Z,13.22
2024-01-24T12:58:30.358Z,13.22
2024-01-24T13:00:57.847Z,13.18
2024-01-24T13:03:27.603Z,13.21
2024-01-24T13:05:57.471Z,13.31
2024-01-24T13:08:25.104Z,13.28
2024-01-24T13:10:53.574Z,13.27
2024-01-24T13:13:21.241Z,13.22
2024-01-24T13:15:49.743Z,13.21
2024-01-24T13:18:16.997Z,13.37
2024-01-24T13:20:44.348Z,13.45
2024-01-24T13:23:11.736Z,13.57
2024-01-24T13:25:39.099Z,13.54
2024-01-24T13:28:06.849Z,13.49
2024-01-24T13:30:35.507Z,14.10
2024-01-24T13:33:02.822Z,14.36
2024-01-24T13:35:31.507Z,14.14
2024-01-24T13:37:59.316Z,13.92
2024-01-24T13:40:26.557Z,13.78
2024-01-24T13:42:54.043Z,13.79
2024-01-24T13:45:21.380Z,13.73
2024-01-24T13:47:48.661Z,13.62
2024-01-24T13:50:16.312Z,13.57
2024-01-24T13:52:43.777Z,13.62
2024-01-24T13:55:12.856Z,13.73
2024-01-24T13:57:43.550Z,13.82
2024-01-24T14:00:14.781Z,13.98
2024-01-24T14:02:42.879Z,13.85
2024-01-24T14:05:11.950Z,14.36
2024-01-24T14:07:43.513Z,14.35
2024-01-24T14:10:12.026Z,14.60
2024-01-24T14:12:39.506Z,14.68
2024-01-24T14:15:15.353Z,14.68
2024-01-24T14:17:51.053Z,14.73
2024-01-24T14:20:18.992Z,14.75
2024-01-24T14:22:46.271Z,14.67
2024-01-24T14:25:13.589Z,14.75
2024-01-24T14:27:41.715Z,14.67
2024-01-24T14:30:09.177Z,14.90
2024-01-24T14:32:39.463Z,14.66
2024-01-24T14:35:07.993Z,14.66
2024-01-24T14:37:36.062Z,14.62
2024-01-24T14:40:04.129Z,14.48
2024-01-24T14:42:32.067Z,14.61
2024-01-24T14:44:59.912Z,14.40
2024-01-24T14:47:27.099Z,14.51
2024-01-24T14:49:54.495Z,14.40
2024-01-24T14:52:21.705Z,14.41
2024-01-24T14:54:48.859Z,14.50
2024-01-24T14:57:16.158Z,14.43
2024-01-24T14:59:43.348Z,14.40
2024-01-24T15:02:10.502Z,14.27
2024-01-24T15:04:40.337Z,14.16
2024-01-24T15:07:07.575Z,14.07
2024-01-24T15:09:35.278Z,14.05
2024-01-24T15:12:03.367Z,13.93
2024-01-24T15:14:30.760Z,13.95
2024-01-24T15:16:58.648Z,13.82
2024-01-24T15:19:26.329Z,13.88
2024-01-24T15:21:54.153Z,13.95
2024-01-24T15:24:22.851Z,13.92
2024-01-24T15:26:50.194Z,13.43
2024-01-24T15:29:17.902Z,13.17
2024-01-24T15:31:45.209Z,12.93
2024-01-24T15:34:15.547Z,13.02
2024-01-24T15:36:43.931Z,12.97
2024-01-24T15:39:13.504Z,12.89
2024-01-24T15:41:42.152Z,12.76
2024-01-24T15:44:09.615Z,12.25
2024-01-24T15:46:36.876Z,11.82
2024-01-24T15:49:04.479Z,11.55
2024-01-24T15:51:32.457Z,11.62
2024-01-24T15:53:59.686Z,11.54
2024-01-24T15:56:27.052Z,11.25
2024-01-24T15:58:57.517Z,11.01
2024-01-24T16:01:25.601Z,11.23
2024-01-24T16:03:54.779Z,11.34
2024-01-24T16:09:20.794Z,10.95
2024-01-24T16:11:48.338Z,10.91
2024-01-24T16:14:16.693Z,10.68
2024-01-24T16:16:47.063Z,10.74
2024-01-24T16:19:14.320Z,10.83
2024-01-24T16:21:44.848Z,10.60
2024-01-24T16:24:12.044Z,10.42
2024-01-24T16:26:39.401Z,10.39
2024-01-24T16:34:48.334Z,10.81
2024-01-24T16:37:15.351Z,10.24
2024-01-24T16:39:41.985Z,10.11
2024-01-24T16:42:09.400Z,10.07
2024-01-24T16:44:36.983Z,10.03
2024-01-24T16:47:04.488Z,10.06
2024-01-24T16:49:32.124Z,10.09
2024-01-24T16:52:00.136Z,10.12
2024-01-24T16:54:27.390Z,10.16
2024-01-24T16:56:54.559Z,10.18
2024-01-24T16:59:21.767Z,10.29
2024-01-24T17:01:49.128Z,10.24
2024-01-24T17:04:16.906Z,10.46
2024-01-24T17:06:46.037Z,10.26
2024-01-24T17:09:13.415Z,10.26
2024-01-24T17:11:40.556Z,10.26
2024-01-24T17:14:07.710Z,10.21
2024-01-24T17:16:36.772Z,10.09
2024-01-24T17:19:04.050Z,10.07
2024-01-24T17:21:31.275Z,10.02
2024-01-24T17:23:58.497Z,9.97
2024-01-24T17:26:25.764Z,9.92
2024-01-24T17:28:55.197Z,9.93
2024-01-24T17:31:23.801Z,9.89
2024-01-24T17:33:51.091Z,9.83
2024-01-24T17:36:18.754Z,9.92
2024-01-24T17:38:46.325Z,9.86
2024-01-24T17:41:16.602Z,9.88
2024-01-24T17:43:44.079Z,9.93
2024-01-24T17:46:12.252Z,9.91
2024-01-24T17:48:40.391Z,10.05
2024-01-24T17:51:08.053Z,9.94
2024-01-24T17:53:35.327Z,9.97
2024-01-24T17:56:02.486Z,9.91
2024-01-24T17:58:32.044Z,9.96
2024-01-24T18:01:00.417Z,9.92
2024-01-24T18:03:27.857Z,9.88
2024-01-24T18:05:55.082Z,9.92
2024-01-24T18:08:23.292Z,9.88
2024-01-24T18:10:51.068Z,9.97
2024-01-24T18:13:18.246Z,9.90
2024-01-24T18:15:45.395Z,9.84
2024-01-24T18:18:12.800Z,9.98
2024-01-24T18:20:40.428Z,9.85
2024-01-24T18:23:07.571Z,9.77
2024-01-24T18:25:35.893Z,9.75
2024-01-24T18:28:05.564Z,9.70
2024-01-24T18:30:32.773Z,9.66
2024-01-24T18:32:59.986Z,9.77
2024-01-24T18:35:27.647Z,9.69
2024-01-24T18:37:54.760Z,9.62
2024-01-24T18:40:22.033Z,9.66
2024-01-24T18:42:49.339Z,9.60
2024-01-24T18:45:17.402Z,9.60
2024-01-24T18:47:44.658Z,9.54
2024-01-24T18:50:12.178Z,9.56
2024-01-24T18:52:39.396Z,9.66
2024-01-24T18:55:07.054Z,9.57
2024-01-24T18:57:34.554Z,9.60
2024-01-24T19:00:01.758Z,9.64
2024-01-24T19:02:29.112Z,9.47
2024-01-24T19:04:58.299Z,9.47
2024-01-24T19:07:25.712Z,9.48
2024-01-24T19:09:53.245Z,9.52
2024-01-24T19:12:20.649Z,9.43
2024-01-24T19:14:48.069Z,9.54
2024-01-24T19:17:15.457Z,9.44
2024-01-24T19:19:42.735Z,9.64
2024-01-24T19:22:10.109Z,9.72
2024-01-24T19:24:37.356Z,9.61
2024-01-24T19:27:05.233Z,9.43
2024-01-24T19:29:32.536Z,9.39
2024-01-24T19:31:59.854Z,9.35
2024-01-24T19:34:27.025Z,9.34
2024-01-24T19:36:54.201Z,9.43
2024-01-24T19:39:21.426Z,9.35
2024-01-24T19:41:48.607Z,9.35
2024-01-24T19:44:18.160Z,9.42
2024-01-24T19:46:45.803Z,9.44
2024-01-24T19:49:13.727Z,9.49
2024-01-24T19:51:40.980Z,9.44
2024-01-24T19:54:08.127Z,9.49
2024-01-24T19:56:35.499Z,9.43
2024-01-24T19:59:04.825Z,9.43
2024-01-24T20:01:32.199Z,9.41
2024-01-24T20:03:59.382Z,9.44
2024-01-24T20:06:26.795Z,9.46
2024-01-24T20:08:54.051Z,9.49
2024-01-24T20:11:21.408Z,9.51
2024-01-24T20:13:49.238Z,9.45
2024-01-24T20:16:16.538Z,9.41
2024-01-24T20:18:43.723Z,9.41
2024-01-24T20:21:10.942Z,9.42
2024-01-24T20:23:38.121Z,9.34
2024-01-24T20:26:06.581Z,9.31
2024-01-24T20:28:33.765Z,9.31
2024-01-24T20:31:00.938Z,9.31
2024-01-24T20:33:28.209Z,9.29
2024-01-24T20:35:55.575Z,9.33
2024-01-24T20:38:22.694Z,9.27
2024-01-24T20:40:50.115Z,9.27
2024-01-24T20:43:17.951Z,9.27
2024-01-24T20:45:45.139Z,9.19
2024-01-24T20:48:16.078Z,9.34
2024-01-24T20:50:43.968Z,9.26
2024-01-24T20:53:13.885Z,9.29
2024-01-24T20:55:41.131Z,9.23
2024-01-24T20:58:09.380Z,9.21
2024-01-24T21:00:37.523Z,9.18
2024-01-24T21:03:05.215Z,9.19
2024-01-24T21:05:32.519Z,9.19
2024-01-24T21:08:00.023Z,9.13
2024-01-24T21:10:27.453Z,9.17
2024-01-24T21:12:54.736Z,9.11
2024-01-24T21:15:22.307Z,9.15
2024-01-24T21:17:51.383Z,9.03
2024-01-24T21:20:19.059Z,8.96
2024-01-24T21:22:48.572Z,9.12
2024-01-24T21:25:19.207Z,9.09
2024-01-24T21:27:46.448Z,9.17
2024-01-24T21:30:14.009Z,9.05
2024-01-24T21:32:41.219Z,9.00
2024-01-24T21:35:10.355Z,8.96
2024-01-24T21:37:37.668Z,8.93
2024-01-24T21:40:05.358Z,8.99
2024-01-24T21:42:32.609Z,9.04
2024-01-24T21:44:59.754Z,9.08
2024-01-24T21:47:27.119Z,8.93
2024-01-24T21:49:54.694Z,8.89
2024-01-24T21:52:22.263Z,8.94
2024-01-24T21:54:52.581Z,9.02
2024-01-24T21:57:19.943Z,9.12
2024-01-24T21:59:51.035Z,8.99
2024-01-24T22:02:18.414Z,8.88
2024-01-24T22:07:27.700Z,8.82
2024-01-24T22:09:55.612Z,8.77
2024-01-24T22:12:22.860Z,8.74
2024-01-24T22:14:51.303Z,8.82
2024-01-24T22:17:19.085Z,8.69
2024-01-24T22:19:46.341Z,8.78
2024-01-24T22:22:14.794Z,8.71
2024-01-24T22:24:42.025Z,8.76
2024-01-24T22:27:09.178Z,8.68
2024-01-24T22:29:36.281Z,8.68
2024-01-24T22:32:04.094Z,8.78
2024-01-24T22:34:31.391Z,8.66
2024-01-24T22:36:59.679Z,8.68
2024-01-24T22:39:26.908Z,8.61
2024-01-24T22:41:54.075Z,8.60
2024-01-24T22:44:21.210Z,8.61
2024-01-24T22:46:48.435Z,8.52
2024-01-24T22:49:15.761Z,8.60
2024-01-24T22:51:42.960Z,8.52
2024-01-24T22:54:10.184Z,8.57
2024-01-24T22:56:37.356Z,8.63
2024-01-24T22:59:04.680Z,8.66
2024-01-24T23:01:32.040Z,8.57
2024-01-24T23:03:59.408Z,8.53
2024-01-24T23:06:26.640Z,8.54
2024-01-24T23:08:53.797Z,8.58
2024-01-24T23:11:21.079Z,8.47
2024-01-24T23:13:48.186Z,8.63
2024-01-24T23:16:15.771Z,8.61
2024-01-24T23:18:43.037Z,8.54
2024-01-24T23:21:10.210Z,8.58
2024-01-24T23:23:37.474Z,8.58
2024-01-24T23:26:04.781Z,8.58
2024-01-24T23:28:32.153Z,8.51
2024-01-24T23:30:59.378Z,8.44
2024-01-24T23:33:29.205Z,8.41
2024-01-24T23:35:56.617Z,8.45
2024-01-24T23:38:23.782Z,8.44
2024-01-24T23:40:50.947Z,8.33
2024-01-24T23:43:18.145Z,8.41
2024-01-24T23:45:45.475Z,8.64
2024-01-24T23:48:12.899Z,8.65
2024-01-24T23:50:40.291Z,8.44
2024-01-24T23:53:08.115Z,8.36
2024-01-24T23:55:37.108Z,8.36
2024-01-24T23:58:04.501Z,8.42
